• Join FlightAware (Why Join?)
  • Login
  • US Flag 
11:01PM EDT


 

Airport Tracker/Info


-or-


 

Live Flight TrackerFlight Track Log ✈ RPA3392 ✈ 02-Jul-2013 ✈ KDCA - KALB

Flight Track Log - Related Links

Times and Time Zones

All times are in EDT time to prevent confusion due to time zone crossing. See the RPA3392 flight status page for this flight to view local times or setup timezone preferences in your user account.

Time Position Orientation Groundspeed Altitude Reporting Facility
EDT Latitude Longitude Course Direction KTS MPH feet Rate Location/Type
10:30PM 38.7833 -77.0333 286° West 189 217 3,300  Level Potomac TRACON
10:31PM 38.7833 -77.1000 270° West 265 305 6,100 2,880 Climbing Potomac TRACON
10:32PM 38.8333 -77.1667 314° West 285 328 9,100 2,520 Climbing Potomac TRACON
10:33PM 38.9000 -77.2500 316° Northwest 311 358 11,200 2,280 Climbing Potomac TRACON
10:34PM 39.5913 -77.4290 339° North  Level FlightAware Approximate
10:34PM 38.9667 -77.3333 316° Northwest 325 374 13,700  Level Potomac TRACON
10:35PM 39.6721 -77.5575 286° West  Level FlightAware Approximate
10:35PM 39.0858 -77.5036 312° West 382 440 17,000  Level Washington Center
10:36PM 39.1786 -77.5622 334° Northwest 366 421 17,000 120 Level Washington Center
10:37PM 39.2783 -77.5836 351° North 361 415 17,300 1,020 Climbing Washington Center
10:38PM 39.3811 -77.5464 16° North 354 407 19,100 1,860 Climbing Washington Center
10:39PM 39.4881 -77.5114 14° North 369 425 21,000 1,680 Climbing Washington Center
10:40PM 39.5853 -77.5492 343° North 369 425 22,500 1,500 Climbing Washington Center
10:42PM 39.6775 -77.7483 301° West 365 420 24,900 1,440 Climbing Cleveland Center
10:43PM 39.7369 -77.8753 301° West 398 458 26,300 1,020 Climbing Cleveland Center
10:44PM 39.7939 -78.0028 300° West 404 465 27,000 300 Climbing Cleveland Center
10:45PM 39.8467 -78.1169 301° West 389 448 27,000  Level Cleveland Center
10:46PM 39.9011 -78.2314 302° West 379 436 27,000  Level Cleveland Center
10:47PM 39.9469 -78.3381 299° West 371 427 27,000  Level Cleveland Center
10:48PM 40.0036 -78.4556 302° West 371 427 27,000  Level Cleveland Center
10:49PM 40.1064 -78.4875 347° North 356 410 27,000  Level Cleveland Center
10:50PM 40.2050 -78.4164 29° Northeast 331 381 27,000  Level Cleveland Center
10:52PM 40.4392 -78.2219 32° Northeast 399 459 27,000  Level New York Center
10:53PM 40.5361 -78.1394 33° Northeast 406 467 27,000  Level New York Center
10:54PM 40.6261 -78.0669 31° Northeast 416 479 27,000  Level New York Center
10:55PM 40.7228 -77.9869 32° Northeast 416 479 27,000  Level New York Center
10:56PM 40.8194 -77.9039 33° Northeast 416 479 27,000  Level New York Center
10:57PM 40.9028 -77.7997 43° Northeast 416 479 27,000  Level New York Center
10:58PM 40.9761 -77.6864 49° Northeast 408 470 27,000  Level New York Center
10:59PM 41.0497 -77.5672 51° Northeast 408 470 27,000  Level New York Center
11:00PM 41.1228 -77.4533 50° Northeast 407 468 27,000  Level New York Center
11:01PM 41.2050 -77.3264 49° Northeast 407 468 27,000  Level New York Center
11:02PM 41.2783 -77.2036 51° Northeast 407 468 27,000  Level New York Center
11:03PM 41.3514 -77.0861 50° Northeast 407 468 27,000  Level New York Center
11:04PM 41.4242 -76.9714 50° Northeast 407 468 27,000  Level New York Center
11:05PM 41.4900 -76.8639 51° Northeast 407 468 27,000  Level New York Center
11:06PM 41.5628 -76.7456 51° Northeast 407 468 27,000  Level New York Center
11:07PM 41.6419 -76.6167 51° Northeast 401 461 27,000  Level New York Center
11:08PM 41.7006 -76.5244 50° Northeast 406 467 27,000  Level New York Center
11:09PM 41.7778 -76.3950 51° Northeast 406 467 27,000 -420 Level New York Center
11:10PM 41.8478 -76.2756 52° Northeast 406 467 26,200 -1,080 Descending New York Center
11:11PM 41.8933 -76.1483 64° Northeast 387 445 24,900 -780 Descending New York Center
11:13PM 41.9914 -75.8928 63° Northeast 380 437 24,000 -360 Descending Boston Center
11:14PM 42.0389 -75.7642 64° Northeast 380 437 24,000  Level Boston Center
11:15PM 42.0844 -75.6378 64° Northeast 380 437 24,000  Level Boston Center
11:16PM 42.1314 -75.5142 63° Northeast 380 437 24,000  Level Boston Center
11:17PM 42.1786 -75.3903 63° Northeast 380 437 24,000  Level Boston Center
11:18PM 42.2233 -75.2664 64° Northeast 380 437 24,000 -900 Level Boston Center
11:19PM 42.2681 -75.1419 64° Northeast 380 437 22,200 -1,860 Descending Boston Center
11:20PM 42.3147 -75.0206 62° Northeast 368 423 20,300 -1,980 Descending Boston Center
11:21PM 42.3483 -74.9236 65° Northeast 364 419 18,700 -1,920 Descending Boston Center
11:22PM 42.3947 -74.7961 64° Northeast 348 400 16,700 -1,860 Descending Boston Center
11:23PM 42.4389 -74.6711 64° Northeast 343 395 14,800 -1,740 Descending Boston Center
11:24PM 42.4806 -74.5600 63° Northeast 328 377 13,200 -1,620 Descending Boston Center
11:25PM 42.5181 -74.4569 64° Northeast 300 345 11,600 -1,680 Descending Boston Center
11:26PM 42.5531 -74.3594 64° Northeast 291 335 9,900 -1,560 Descending Boston Center
11:27PM 42.5881 -74.2619 64° Northeast 287 330 8,500 -1,080 Descending Boston Center
11:28PM 42.6208 -74.1669 65° Northeast 278 320 7,800 -660 Descending Boston Center
11:29PM 42.6656 -74.0861 53° Northeast 276 318 7,200 -840 Descending Boston Center
11:30PM 42.7311 -74.0369 29° Northeast 267 307 6,200 -900 Descending Boston Center
11:31PM 42.7983 -73.9850 30° Northeast 266 306 5,400 -1,080 Descending Boston Center
11:32PM 42.8658 -73.9386 27° Northeast 265 305 4,100 -900 Descending Boston Center
11:33PM 42.9267 -73.8947 28° Northeast 242 278 3,600 -600 Descending Boston Center
11:34PM 42.9464 -73.8300 67° East 179 206 2,900 -840 Descending Boston Center
11:35PM 42.9028 -73.8119 163° South 153 176 2,000 -480 Descending Boston Center
11:36PM 42.8589 -73.8139 182° South 148 170 2,000  Level Boston Center